Time;durP1;ratioP1;P1;durP2;ratioP2;P2;SDS_P1;SDS_P2;PMS_P1;PMS_P2;Temp;Humidity;BMP_temperature;BMP_pressure;BME280_temperature;BME280_humidity;BME280_pressure;Samples;Min_cycle;Max_cycle;Signal;HPM_P1;HPM_P2
2022/09/14 00:01:51;;;;;;;5.28;3.58;;;20.00;99.90;;;;;;5027326;28;20037;-72
2022/09/14 00:04:18;;;;;;;6.50;3.92;;;20.10;99.90;;;;;;5028470;28;20080;-72
2022/09/14 00:06:46;;;;;;;6.25;4.28;;;20.10;99.90;;;;;;5034548;28;20027;-72
2022/09/14 00:09:18;;;;;;;7.57;3.83;;;20.10;99.90;;;;;;5027697;28;20033;-72
2022/09/14 00:11:45;;;;;;;5.80;4.20;;;20.10;99.90;;;;;;5028132;28;20052;-72
2022/09/14 00:14:10;;;;;;;6.85;3.90;;;20.10;99.90;;;;;;5028982;28;20570;-72
2022/09/14 00:16:39;;;;;;;6.35;4.40;;;20.10;99.90;;;;;;5038468;28;20123;-72
2022/09/14 00:19:22;;;;;;;7.45;4.22;;;20.10;99.90;;;;;;5029716;28;20037;-72
2022/09/14 00:21:54;;;;;;;5.70;3.95;;;20.10;99.90;;;;;;5034721;28;20030;-72
2022/09/14 00:24:20;;;;;;;5.80;3.55;;;20.10;99.90;;;;;;5027722;28;20044;-72
2022/09/14 00:26:46;;;;;;;8.00;4.10;;;20.10;99.90;;;;;;5027368;28;20030;-72
2022/09/14 00:29:12;;;;;;;7.20;4.38;;;20.10;99.90;;;;;;5029818;28;20040;-72
2022/09/14 00:31:38;;;;;;;7.28;3.95;;;20.00;99.90;;;;;;5028684;28;20930;-72
2022/09/14 00:34:06;;;;;;;6.57;3.90;;;20.00;99.90;;;;;;5029535;28;20025;-72
2022/09/14 00:36:36;;;;;;;7.05;3.50;;;20.00;99.90;;;;;;5030767;28;20029;-72
2022/09/14 00:39:02;;;;;;;9.15;4.13;;;20.00;99.90;;;;;;5028479;28;20502;-72
2022/09/14 00:41:33;;;;;;;6.57;4.10;;;20.00;99.90;;;;;;5036089;28;20104;-72
2022/09/14 00:44:07;;;;;;;7.90;4.30;;;20.00;99.90;;;;;;5029661;28;20037;-72
2022/09/14 00:46:38;;;;;;;5.90;3.88;;;20.00;99.90;;;;;;5029225;28;20483;-72
2022/09/14 00:49:09;;;;;;;8.13;3.88;;;20.00;99.90;;;;;;5030149;28;20104;-72
2022/09/14 00:51:38;;;;;;;7.57;4.13;;;20.00;99.90;;;;;;5028136;28;20118;-72
2022/09/14 00:54:05;;;;;;;10.00;4.80;;;20.00;99.90;;;;;;5028385;28;20034;-72
2022/09/14 00:56:31;;;;;;;7.47;4.32;;;20.00;99.90;;;;;;5029221;28;20056;-72
2022/09/14 00:58:59;;;;;;;8.05;4.28;;;20.00;99.90;;;;;;5035628;28;20476;-72
2022/09/14 01:01:25;;;;;;;7.00;3.92;;;20.00;99.90;;;;;;5027263;28;20025;-73
2022/09/14 01:03:51;;;;;;;8.05;3.92;;;19.90;99.90;;;;;;5028369;28;20108;-72
2022/09/14 01:06:42;;;;;;;6.57;3.58;;;19.90;99.90;;;;;;5027210;28;20148;-73
2022/09/14 01:09:19;;;;;;;7.57;4.57;;;19.90;99.90;;;;;;5027006;28;20048;-73
2022/09/14 01:12:06;;;;;;;7.97;4.13;;;19.80;99.90;;;;;;5026504;28;20550;-72
2022/09/14 01:14:56;;;;;;;6.70;3.70;;;19.80;99.90;;;;;;5028351;28;20047;-72
2022/09/14 01:17:27;;;;;;;7.03;4.57;;;19.80;99.90;;;;;;5027085;28;20056;-72
2022/09/14 01:20:02;;;;;;;7.07;3.83;;;19.80;99.90;;;;;;5034014;28;20406;-72
2022/09/14 01:22:58;;;;;;;13.68;4.28;;;19.80;99.90;;;;;;5029005;28;20033;-72
2022/09/14 01:25:49;;;;;;;7.85;4.22;;;19.80;99.90;;;;;;5034040;28;20028;-72
2022/09/14 01:28:53;;;;;;;7.38;4.20;;;19.80;99.90;;;;;;5031742;28;20052;-72
2022/09/14 01:31:42;;;;;;;6.80;4.05;;;19.80;99.90;;;;;;5027946;28;20041;-72
2022/09/14 01:34:42;;;;;;;7.32;5.03;;;19.80;99.90;;;;;;5034585;28;20068;-73
2022/09/14 01:37:14;;;;;;;7.50;4.47;;;19.70;99.90;;;;;;5057998;28;20116;-72
2022/09/14 01:39:48;;;;;;;7.28;4.40;;;19.70;99.90;;;;;;5028981;28;20056;-73
2022/09/14 01:42:19;;;;;;;9.55;4.65;;;19.70;99.90;;;;;;5027336;28;20040;-72
2022/09/14 01:44:48;;;;;;;9.20;4.13;;;19.80;99.90;;;;;;5027996;28;20116;-72
2022/09/14 01:47:38;;;;;;;10.02;3.92;;;19.80;99.90;;;;;;5035606;28;20442;-72
2022/09/14 01:50:14;;;;;;;7.18;4.75;;;19.80;99.90;;;;;;5029031;28;20087;-72
2022/09/14 01:52:46;;;;;;;5.90;3.95;;;19.70;99.90;;;;;;5027593;28;20075;-72
2022/09/14 01:55:18;;;;;;;10.38;4.57;;;19.60;99.90;;;;;;5029137;28;20060;-72
2022/09/14 01:57:54;;;;;;;7.70;4.97;;;19.70;99.90;;;;;;5040078;28;20029;-72
2022/09/14 02:00:21;;;;;;;5.97;4.20;;;19.70;99.90;;;;;;5029068;28;20041;-72
2022/09/14 02:02:56;;;;;;;7.32;4.05;;;19.70;99.90;;;;;;5034979;28;20037;-72
2022/09/14 02:05:30;;;;;;;7.57;4.45;;;19.70;99.90;;;;;;5025921;28;20025;-73
2022/09/14 02:07:56;;;;;;;;;;;19.70;99.90;;;;;;5032423;28;20040;-73
2022/09/14 02:10:23;;;;;;;7.07;4.55;;;19.60;99.90;;;;;;5030755;28;19917;-73
2022/09/14 02:12:51;;;;;;;6.53;4.53;;;19.50;99.90;;;;;;5031470;28;20118;-72
2022/09/14 02:15:16;;;;;;;7.95;4.47;;;19.50;99.90;;;;;;5030736;28;20025;-72
2022/09/14 02:17:42;;;;;;;9.98;4.90;;;19.50;99.90;;;;;;5033113;28;20025;-72
2022/09/14 02:20:19;;;;;;;7.93;4.78;;;19.50;99.90;;;;;;5031633;28;20029;-72
2022/09/14 02:22:45;;;;;;;6.10;4.03;;;19.50;99.90;;;;;;5033789;28;20025;-72
2022/09/14 02:25:10;;;;;;;7.35;4.22;;;19.40;99.90;;;;;;5032767;28;20033;-72
2022/09/14 02:27:36;;;;;;;5.65;4.30;;;19.40;99.90;;;;;;5030029;28;20036;-72
2022/09/14 02:30:02;;;;;;;7.55;4.32;;;19.40;99.90;;;;;;5031675;28;20029;-72
2022/09/14 02:33:07;;;;;;;7.97;4.53;;;19.40;99.90;;;;;;5030449;28;20025;-72
2022/09/14 02:35:53;;;;;;;9.60;4.40;;;19.40;99.90;;;;;;5031019;28;20336;-72
2022/09/14 02:38:47;;;;;;;8.32;4.72;;;19.40;99.90;;;;;;5030796;28;20025;-72
2022/09/14 02:41:30;;;;;;;7.10;4.40;;;19.40;99.90;;;;;;5031942;28;20926;-72
2022/09/14 02:44:09;;;;;;;6.18;4.38;;;19.40;99.90;;;;;;5032901;28;20029;-72
2022/09/14 02:46:56;;;;;;;6.50;4.00;;;19.40;99.90;;;;;;5029792;28;20472;-72
2022/09/14 02:49:49;;;;;;;6.53;4.00;;;19.40;99.90;;;;;;5030435;28;20444;-72
2022/09/14 02:52:23;;;;;;;8.55;5.00;;;19.50;99.90;;;;;;5033709;28;20079;-72
2022/09/14 02:55:01;;;;;;;6.43;4.18;;;19.50;99.90;;;;;;5034464;28;20025;-72
2022/09/14 02:57:26;;;;;;;7.35;4.47;;;19.50;99.90;;;;;;5031573;28;20028;-72
2022/09/14 02:59:53;;;;;;;8.38;4.32;;;19.50;99.90;;;;;;5034287;28;20037;-72
2022/09/14 03:02:20;;;;;;;6.38;4.13;;;19.50;99.90;;;;;;5033385;28;20108;-72
2022/09/14 03:04:45;;;;;;;8.07;4.63;;;19.50;99.90;;;;;;5024501;28;20065;-72
2022/09/14 03:07:11;;;;;;;9.20;4.65;;;19.50;99.90;;;;;;5030289;28;21005;-72
2022/09/14 03:09:37;;;;;;;6.68;4.57;;;19.40;99.90;;;;;;5029061;28;20030;-72
2022/09/14 03:12:03;;;;;;;12.60;4.53;;;19.30;99.90;;;;;;5025891;28;20407;-72
2022/09/14 03:14:28;;;;;;;6.95;4.32;;;19.30;99.90;;;;;;5025020;28;20017;-72
2022/09/14 03:16:54;;;;;;;9.10;4.35;;;19.30;99.90;;;;;;5025424;28;20029;-72
2022/09/14 03:19:19;;;;;;;10.48;4.57;;;19.20;99.90;;;;;;5031307;28;20049;-72
2022/09/14 03:21:45;;;;;;;5.85;4.50;;;19.20;99.90;;;;;;5023608;28;20108;-72
2022/09/14 03:24:11;;;;;;;5.85;4.40;;;19.20;99.90;;;;;;5026037;28;20030;-72
2022/09/14 03:26:37;;;;;;;8.48;4.30;;;19.30;99.90;;;;;;5026591;28;20451;-72
2022/09/14 03:29:04;;;;;;;7.75;4.30;;;19.20;99.90;;;;;;5034391;28;20025;-72
2022/09/14 03:31:31;;;;;;;7.80;4.55;;;19.20;99.90;;;;;;5025300;28;20148;-72
2022/09/14 03:33:59;;;;;;;6.93;4.60;;;19.20;99.90;;;;;;5024892;28;20075;-72
2022/09/14 03:36:27;;;;;;;8.30;5.25;;;19.20;99.90;;;;;;5024928;28;20021;-72
2022/09/14 03:38:54;;;;;;;5.75;4.03;;;19.40;99.90;;;;;;5027633;28;20035;-72
2022/09/14 03:41:21;;;;;;;7.45;4.78;;;19.40;99.90;;;;;;5024818;28;20021;-72
2022/09/14 03:43:47;;;;;;;6.38;4.78;;;19.50;99.90;;;;;;5024329;28;20036;-72
2022/09/14 03:46:15;;;;;;;8.15;4.47;;;19.50;99.90;;;;;;5026785;28;20026;-72
2022/09/14 03:48:41;;;;;;;6.78;4.40;;;19.50;99.90;;;;;;5025906;28;20026;-72
2022/09/14 03:51:08;;;;;;;9.13;4.50;;;19.50;99.90;;;;;;5025463;28;20095;-72
2022/09/14 03:53:35;;;;;;;12.07;5.30;;;19.40;99.90;;;;;;5025572;28;20029;-72
2022/09/14 03:56:00;;;;;;;6.90;5.05;;;19.40;99.90;;;;;;5021892;28;20099;-72
2022/09/14 03:58:30;;;;;;;5.15;3.88;;;19.30;99.90;;;;;;5022404;28;20483;-72
2022/09/14 04:01:06;;;;;;;7.15;5.03;;;19.30;99.90;;;;;;5025028;28;20041;-72
2022/09/14 04:03:33;;;;;;;6.07;4.78;;;19.20;99.90;;;;;;5022530;28;20029;-72
2022/09/14 04:05:59;;;;;;;6.68;4.43;;;19.30;99.90;;;;;;5022330;28;20129;-72
2022/09/14 04:08:24;;;;;;;8.23;4.43;;;19.20;99.90;;;;;;5020540;28;20104;-72
2022/09/14 04:10:50;;;;;;;6.20;4.28;;;19.30;99.90;;;;;;5023628;28;20033;-72
2022/09/14 04:13:16;;;;;;;5.45;4.43;;;19.30;99.90;;;;;;5021724;28;20128;-72
2022/09/14 04:15:42;;;;;;;5.63;4.10;;;19.20;99.90;;;;;;5027445;28;20544;-72
2022/09/14 04:18:07;;;;;;;8.77;5.13;;;19.20;99.90;;;;;;5034362;28;20021;-72
2022/09/14 04:20:33;;;;;;;6.25;4.43;;;19.20;99.90;;;;;;5025128;28;20041;-72
2022/09/14 04:22:59;;;;;;;7.97;4.60;;;19.30;99.90;;;;;;5026211;28;20033;-72
2022/09/14 04:25:24;;;;;;;11.65;4.43;;;19.30;99.90;;;;;;5024776;28;20057;-72
2022/09/14 04:27:50;;;;;;;6.50;4.03;;;19.30;99.90;;;;;;5021050;28;20033;-72
2022/09/14 04:30:16;;;;;;;8.00;4.00;;;19.30;99.90;;;;;;5020777;28;20472;-72
2022/09/14 04:32:43;;;;;;;5.60;4.35;;;19.30;99.90;;;;;;5021850;28;20640;-72
2022/09/14 04:35:09;;;;;;;12.63;5.07;;;19.30;99.90;;;;;;5027269;28;20314;-72
2022/09/14 04:37:34;;;;;;;8.52;4.97;;;19.40;99.90;;;;;;5020440;28;20120;-72
2022/09/14 04:40:00;;;;;;;5.95;4.70;;;19.40;99.90;;;;;;5028970;28;20045;-72
2022/09/14 04:42:28;;;;;;;8.20;5.32;;;19.40;99.90;;;;;;5020467;28;20472;-72
2022/09/14 04:44:53;;;;;;;6.18;4.38;;;19.40;99.90;;;;;;5020107;28;20080;-72
2022/09/14 04:47:19;;;;;;;6.05;4.63;;;19.40;99.90;;;;;;5021408;28;20575;-72
2022/09/14 04:49:44;;;;;;;8.73;4.88;;;19.30;99.90;;;;;;5024384;28;20167;-72
2022/09/14 04:52:10;;;;;;;7.82;5.15;;;19.20;99.90;;;;;;5020377;28;20029;-72
2022/09/14 04:54:36;;;;;;;16.08;4.35;;;19.30;99.90;;;;;;5028067;28;20029;-72
2022/09/14 04:57:02;;;;;;;6.10;4.60;;;19.20;99.90;;;;;;5021047;28;20041;-72
2022/09/14 04:59:27;;;;;;;6.40;4.78;;;19.20;99.90;;;;;;5021657;28;20045;-72
2022/09/14 05:01:53;;;;;;;7.82;4.47;;;19.20;99.90;;;;;;5020421;28;20525;-72
2022/09/14 05:04:18;;;;;;;6.70;4.38;;;19.20;99.90;;;;;;5021527;28;20434;-72
2022/09/14 05:06:44;;;;;;;8.50;5.03;;;19.20;99.90;;;;;;5020125;28;20026;-72
2022/09/14 05:09:16;;;;;;;6.50;4.60;;;19.30;99.90;;;;;;5021203;28;20037;-72
2022/09/14 05:11:42;;;;;;;11.43;5.15;;;19.30;99.90;;;;;;5023329;28;20040;-72
2022/09/14 05:14:10;;;;;;;7.55;5.60;;;19.40;99.90;;;;;;5024135;28;20021;-72
2022/09/14 05:16:37;;;;;;;10.07;4.85;;;19.40;99.90;;;;;;5023616;28;20025;-72
2022/09/14 05:19:09;;;;;;;6.63;4.30;;;19.40;99.90;;;;;;5028077;28;20029;-72
2022/09/14 05:21:36;;;;;;;9.20;4.28;;;19.40;99.90;;;;;;5029708;28;20513;-72
2022/09/14 05:24:11;;;;;;;9.98;4.47;;;19.40;99.90;;;;;;5024815;28;20386;-72
2022/09/14 05:26:37;;;;;;;8.52;5.50;;;19.40;99.90;;;;;;5028561;28;20029;-72
2022/09/14 05:29:02;;;;;;;8.18;5.13;;;19.30;99.90;;;;;;5024135;28;20083;-72
2022/09/14 05:31:29;;;;;;;6.43;4.47;;;19.40;99.90;;;;;;5026103;28;20448;-72
2022/09/14 05:33:56;;;;;;;7.63;5.20;;;19.40;99.90;;;;;;5031136;28;20025;-72
2022/09/14 05:36:22;;;;;;;11.48;4.78;;;19.30;99.90;;;;;;5024228;28;20525;-72
2022/09/14 05:38:48;;;;;;;9.43;4.15;;;19.40;99.90;;;;;;5029586;28;20120;-72
2022/09/14 05:41:14;;;;;;;8.90;4.80;;;19.40;99.90;;;;;;5022131;28;20503;-72
2022/09/14 05:43:41;;;;;;;5.60;3.75;;;19.40;99.90;;;;;;5024815;28;20025;-72
2022/09/14 05:46:10;;;;;;;8.10;4.13;;;19.40;99.90;;;;;;5026750;28;20033;-72
2022/09/14 05:48:37;;;;;;;5.85;4.30;;;19.40;99.90;;;;;;5029490;28;20026;-73
2022/09/14 05:51:06;;;;;;;9.02;4.65;;;19.50;99.90;;;;;;5034275;28;20025;-72
2022/09/14 05:53:32;;;;;;;11.57;4.90;;;19.50;99.90;;;;;;5030661;28;20025;-72
2022/09/14 05:56:10;;;;;;;6.50;4.93;;;19.40;99.90;;;;;;5030287;28;20076;-72
2022/09/14 05:58:38;;;;;;;9.82;5.03;;;19.20;99.90;;;;;;5029695;28;20053;-72
2022/09/14 06:01:15;;;;;;;7.80;4.78;;;19.20;99.90;;;;;;5027229;28;20042;-72
2022/09/14 06:03:42;;;;;;;7.47;5.47;;;19.10;99.90;;;;;;5036722;28;20571;-72
2022/09/14 06:06:10;;;;;;;7.88;5.07;;;19.30;99.90;;;;;;5028991;28;20043;-72
2022/09/14 06:08:37;;;;;;;7.93;4.43;;;19.30;99.90;;;;;;5025463;28;20029;-73
2022/09/14 06:11:10;;;;;;;7.00;4.82;;;19.40;99.90;;;;;;5026107;28;20034;-73
2022/09/14 06:13:36;;;;;;;6.88;5.07;;;19.40;99.90;;;;;;5025983;28;20052;-73
2022/09/14 06:16:06;;;;;;;6.10;4.45;;;19.50;99.90;;;;;;5026197;28;20038;-72
2022/09/14 06:18:33;;;;;;;6.28;4.13;;;19.40;99.90;;;;;;5023532;28;20048;-72
2022/09/14 06:20:59;;;;;;;7.13;4.72;;;19.50;99.90;;;;;;5024261;28;20042;-72
2022/09/14 06:23:27;;;;;;;8.05;4.50;;;19.50;99.90;;;;;;5023513;28;20060;-72
2022/09/14 06:25:57;;;;;;;7.78;5.30;;;19.70;99.90;;;;;;5025430;28;20068;-72
2022/09/14 06:28:24;;;;;;;6.70;5.28;;;19.70;99.90;;;;;;5026182;28;20037;-72
2022/09/14 06:30:50;;;;;;;6.35;4.82;;;19.80;99.90;;;;;;5033322;28;20021;-72
2022/09/14 06:33:17;;;;;;;9.15;5.40;;;19.80;99.90;;;;;;5023904;28;20380;-72
2022/09/14 06:35:45;;;;;;;7.90;4.90;;;19.80;99.90;;;;;;5024637;28;20573;-72
2022/09/14 06:38:11;;;;;;;6.63;5.32;;;19.80;99.90;;;;;;5028375;28;20037;-73
2022/09/14 06:40:37;;;;;;;8.48;4.05;;;19.80;99.90;;;;;;5026371;28;20025;-72
2022/09/14 06:43:02;;;;;;;8.48;5.32;;;19.70;99.90;;;;;;5026608;28;20051;-72
2022/09/14 06:45:29;;;;;;;9.43;5.65;;;19.70;99.90;;;;;;5021378;28;20083;-72
2022/09/14 06:47:56;;;;;;;7.80;4.97;;;19.70;99.90;;;;;;5023625;28;20025;-73
2022/09/14 06:50:22;;;;;;;7.75;5.30;;;19.80;99.90;;;;;;5021986;28;20068;-72
2022/09/14 06:52:47;;;;;;;8.15;5.75;;;19.80;99.90;;;;;;5022496;28;20038;-72
2022/09/14 06:55:13;;;;;;;6.85;5.40;;;19.90;99.90;;;;;;5024725;28;20067;-72
2022/09/14 06:57:39;;;;;;;8.10;5.10;;;20.00;99.90;;;;;;5020977;28;20068;-72
2022/09/14 07:00:05;;;;;;;8.27;5.72;;;20.10;99.90;;;;;;5030120;28;20080;-72
2022/09/14 07:02:30;;;;;;;9.10;6.47;;;20.20;99.90;;;;;;5029931;28;20017;-73
2022/09/14 07:04:56;;;;;;;12.45;5.97;;;20.50;99.90;;;;;;5026574;28;20517;-72
2022/09/14 07:07:22;;;;;;;9.20;5.40;;;20.90;99.90;;;;;;5022768;28;20068;-72
2022/09/14 07:09:48;;;;;;;7.25;5.30;;;20.80;99.90;;;;;;5023957;28;20037;-72
2022/09/14 07:12:13;;;;;;;7.05;4.32;;;20.80;99.90;;;;;;5021608;28;20057;-72
2022/09/14 07:14:39;;;;;;;9.48;4.80;;;20.80;99.90;;;;;;5022341;28;20107;-72
2022/09/14 07:17:05;;;;;;;8.40;4.35;;;20.80;99.90;;;;;;5022223;28;20043;-72
2022/09/14 07:19:31;;;;;;;7.55;4.60;;;20.80;99.90;;;;;;5021451;28;20046;-72
2022/09/14 07:21:56;;;;;;;7.53;5.07;;;20.80;99.90;;;;;;5022675;28;20030;-72
2022/09/14 07:24:22;;;;;;;10.18;5.10;;;20.80;99.90;;;;;;5023273;28;20038;-72
2022/09/14 07:26:48;;;;;;;8.65;4.85;;;21.00;99.90;;;;;;5021418;28;20029;-72
2022/09/14 07:29:16;;;;;;;7.15;5.55;;;21.10;99.90;;;;;;5028582;28;20053;-72
2022/09/14 07:31:45;;;;;;;9.98;6.13;;;21.00;99.90;;;;;;5029906;28;20029;-73
2022/09/14 07:34:12;;;;;;;10.15;6.28;;;20.90;99.90;;;;;;5022022;28;20052;-74
2022/09/14 07:36:38;;;;;;;7.35;5.30;;;21.00;99.90;;;;;;5021223;28;20120;-74
2022/09/14 07:39:06;;;;;;;8.73;5.32;;;20.90;99.90;;;;;;5022388;28;20068;-74
2022/09/14 07:41:33;;;;;;;12.48;4.90;;;20.90;99.90;;;;;;5027532;28;20415;-74
2022/09/14 07:44:00;;;;;;;10.38;6.40;;;20.70;99.90;;;;;;5023274;28;20033;-74
2022/09/14 07:46:32;;;;;;;9.60;5.70;;;20.60;99.90;;;;;;5024029;28;20029;-74
2022/09/14 07:49:00;;;;;;;13.38;5.85;;;20.70;99.90;;;;;;5023288;28;20034;-74
2022/09/14 07:51:27;;;;;;;7.63;5.57;;;20.80;99.90;;;;;;5021141;28;20040;-74
2022/09/14 07:53:53;;;;;;;9.30;5.90;;;21.00;99.90;;;;;;5027928;28;20044;-74
2022/09/14 07:56:20;;;;;;;11.15;5.68;;;21.10;99.90;;;;;;5024217;28;20029;-74
2022/09/14 07:58:46;;;;;;;9.48;4.50;;;21.10;99.90;;;;;;5021719;28;20018;-74
2022/09/14 08:01:16;;;;;;;7.57;4.47;;;21.20;99.90;;;;;;5021344;28;20072;-74
2022/09/14 08:03:43;;;;;;;7.30;4.47;;;21.30;99.90;;;;;;5021211;28;20029;-74
2022/09/14 08:06:31;;;;;;;7.45;5.00;;;21.60;99.90;;;;;;5021827;28;20510;-74
2022/09/14 08:08:57;;;;;;;7.43;4.85;;;21.80;99.90;;;;;;5022278;28;20052;-74
2022/09/14 08:11:26;;;;;;;19.25;7.43;;;21.90;99.90;;;;;;5021018;28;20048;-74
2022/09/14 08:13:54;;;;;;;9.40;5.85;;;21.80;99.90;;;;;;5020735;28;20065;-74
2022/09/14 08:16:21;;;;;;;8.02;5.22;;;21.80;99.90;;;;;;5028429;28;20062;-74
2022/09/14 08:18:51;;;;;;;15.23;7.10;;;21.80;99.90;;;;;;5020877;28;20021;-74
2022/09/14 08:21:17;;;;;;;13.55;6.30;;;21.80;99.90;;;;;;5024068;28;20480;-74
2022/09/14 08:23:44;;;;;;;10.27;5.85;;;21.70;99.90;;;;;;5022348;28;20095;-74
2022/09/14 08:26:15;;;;;;;10.45;6.07;;;21.80;99.90;;;;;;5026296;28;20032;-74
2022/09/14 08:28:41;;;;;;;13.68;6.10;;;21.80;99.90;;;;;;5020437;28;20108;-74
2022/09/14 08:31:10;;;;;;;9.48;5.22;;;21.80;99.90;;;;;;5026632;28;20025;-74
2022/09/14 08:33:38;;;;;;;10.90;5.50;;;21.70;99.90;;;;;;5021775;28;20040;-74
2022/09/14 08:36:06;;;;;;;11.23;5.93;;;21.80;99.90;;;;;;5021886;28;20068;-74
2022/09/14 08:38:32;;;;;;;8.48;5.10;;;21.90;99.90;;;;;;5020673;28;20071;-74
2022/09/14 08:41:15;;;;;;;9.18;5.43;;;22.20;99.90;;;;;;5023802;28;20044;-74
2022/09/14 08:43:40;;;;;;;9.90;5.20;;;22.40;99.90;;;;;;5027635;28;20029;-75
2022/09/14 08:46:14;;;;;;;8.25;5.47;;;22.40;99.90;;;;;;5022697;28;20099;-74
2022/09/14 08:48:46;;;;;;;9.32;5.35;;;22.20;99.90;;;;;;5021675;28;20625;-74
2022/09/14 08:51:12;;;;;;;7.50;4.88;;;22.20;99.90;;;;;;5019553;28;20030;-74
2022/09/14 08:53:39;;;;;;;10.35;5.40;;;22.10;99.90;;;;;;5023465;28;20040;-74
2022/09/14 08:56:14;;;;;;;8.77;5.70;;;22.30;99.90;;;;;;5020495;28;20037;-74
2022/09/14 08:58:45;;;;;;;13.23;6.03;;;22.40;99.90;;;;;;5020253;28;20124;-75
2022/09/14 09:01:14;;;;;;;9.55;6.05;;;22.60;99.90;;;;;;5020665;28;20139;-74
2022/09/14 09:03:57;;;;;;;10.68;4.20;;;22.90;99.90;;;;;;5026415;28;20453;-74
2022/09/14 09:06:33;;;;;;;10.40;4.93;;;23.20;99.90;;;;;;5024597;28;20468;-74
2022/09/14 09:09:26;;;;;;;9.10;5.53;;;23.70;99.90;;;;;;5021714;28;20041;-75
2022/09/14 09:11:54;;;;;;;9.77;5.25;;;23.80;99.90;;;;;;5022995;28;20437;-75
2022/09/14 09:14:40;;;;;;;10.88;5.95;;;23.90;99.90;;;;;;5030579;28;20017;-75
2022/09/14 09:17:41;;;;;;;8.30;5.53;;;24.10;99.90;;;;;;5025463;28;20073;-74
2022/09/14 09:20:19;;;;;;;11.18;5.50;;;23.80;99.90;;;;;;5024437;28;20322;-74
2022/09/14 09:23:10;;;;;;;7.57;5.03;;;23.70;99.90;;;;;;5029174;28;20504;-74
2022/09/14 09:25:47;;;;;;;9.48;6.43;;;23.90;99.90;;;;;;5027319;28;20026;-74
2022/09/14 09:28:15;;;;;;;10.57;5.15;;;23.80;99.90;;;;;;5030083;28;20163;-74
2022/09/14 09:30:41;;;;;;;8.38;5.82;;;23.70;99.90;;;;;;5031748;28;20025;-75
2022/09/14 09:33:17;;;;;;;11.57;5.88;;;23.80;99.90;;;;;;5026915;28;20535;-75
2022/09/14 09:35:43;;;;;;;9.77;5.57;;;24.70;99.90;;;;;;5026987;28;20038;-74
2022/09/14 09:38:17;;;;;;;7.57;5.05;;;24.90;99.90;;;;;;5030194;28;20610;-74
2022/09/14 09:40:48;;;;;;;10.32;6.07;;;24.50;99.90;;;;;;5030577;28;20033;-74
2022/09/14 09:43:17;;;;;;;9.25;6.28;;;24.60;99.90;;;;;;5026335;28;20360;-74
2022/09/14 09:45:54;;;;;;;11.07;5.20;;;24.10;99.90;;;;;;5027322;28;20064;-75
2022/09/14 09:48:49;;;;;;;9.38;5.70;;;24.40;99.90;;;;;;5032803;28;20037;-74
2022/09/14 09:51:35;;;;;;;7.80;5.70;;;24.20;99.90;;;;;;5024415;28;20506;-74
2022/09/14 09:54:17;;;;;;;9.63;5.75;;;23.70;99.90;;;;;;5028838;28;20099;-74
2022/09/14 09:57:05;;;;;;;11.38;5.95;;;23.80;99.90;;;;;;5026688;28;20083;-75
2022/09/14 09:59:36;;;;;;;9.88;6.03;;;23.80;99.90;;;;;;5025929;28;20119;-74
2022/09/14 10:02:29;;;;;;;10.00;6.72;;;23.90;99.90;;;;;;5026065;28;20459;-74
2022/09/14 10:05:03;;;;;;;8.38;6.32;;;23.80;99.90;;;;;;5026361;28;20037;-74
2022/09/14 10:07:32;;;;;;;10.65;6.55;;;24.00;99.90;;;;;;5026654;28;20033;-74
2022/09/14 10:09:57;;;;;;;9.98;6.85;;;23.70;99.90;;;;;;5027294;28;20048;-75
2022/09/14 10:12:23;;;;;;;14.13;7.13;;;23.40;99.90;;;;;;5027223;28;20037;-74
2022/09/14 10:15:20;;;;;;;10.55;5.90;;;23.30;99.90;;;;;;5029432;28;20392;-74
2022/09/14 10:18:13;;;;;;;10.07;6.03;;;23.30;99.90;;;;;;5025129;28;20049;-74
2022/09/14 10:21:01;;;;;;;8.13;5.40;;;23.40;99.90;;;;;;5029458;28;20060;-75
2022/09/14 10:23:32;;;;;;;8.75;5.68;;;23.50;99.90;;;;;;5025335;28;20729;-74
2022/09/14 10:26:21;;;;;;;8.77;5.88;;;23.50;99.90;;;;;;5025732;28;20060;-74
2022/09/14 10:28:48;;;;;;;10.25;6.55;;;23.60;99.90;;;;;;5025987;28;20086;-74
2022/09/14 10:31:30;;;;;;;9.30;6.07;;;23.80;99.90;;;;;;5024906;28;20387;-75
2022/09/14 10:33:56;;;;;;;11.35;6.03;;;24.00;99.90;;;;;;5025582;28;20442;-74
2022/09/14 10:36:40;;;;;;;11.95;6.20;;;24.00;99.90;;;;;;5026716;28;20025;-74
2022/09/14 10:39:20;;;;;;;;;;;23.60;99.90;;;;;;5026595;28;20112;-74
2022/09/14 10:42:25;;;;;;;10.52;5.72;;;23.60;99.90;;;;;;5026351;28;20283;-75
2022/09/14 10:45:34;;;;;;;12.70;6.30;;;23.70;99.90;;;;;;5024348;28;20116;-75
2022/09/14 10:48:05;;;;;;;10.15;5.13;;;23.80;99.90;;;;;;5027560;28;20037;-75
2022/09/14 10:50:49;;;;;;;9.80;5.75;;;23.80;99.90;;;;;;5023955;28;20090;-75
2022/09/14 10:53:35;;;;;;;10.73;5.57;;;23.80;99.90;;;;;;5024499;28;20044;-75
2022/09/14 10:56:08;;;;;;;8.07;5.53;;;24.00;99.90;;;;;;5025089;28;20041;-74
2022/09/14 10:59:28;;;;;;;10.35;6.63;;;24.00;99.90;;;;;;5029274;28;20362;-75
2022/09/14 11:02:28;;;;;;;11.30;5.75;;;24.00;99.90;;;;;;5026598;28;20422;-75
2022/09/14 11:05:35;;;;;;;12.27;5.70;;;24.20;99.90;;;;;;5021944;28;20032;-75
2022/09/14 11:08:12;;;;;;;12.90;6.65;;;24.40;99.90;;;;;;5026688;28;20357;-75
2022/09/14 11:11:08;;;;;;;8.63;5.40;;;24.40;99.90;;;;;;5026574;28;20488;-75
2022/09/14 11:14:11;;;;;;;12.35;5.45;;;24.60;99.90;;;;;;4986090;28;1143150;-75
2022/09/14 11:16:56;;;;;;;9.68;5.40;;;24.90;99.90;;;;;;5022839;28;20053;-75
2022/09/14 11:19:33;;;;;;;14.13;5.47;;;24.90;99.90;;;;;;5024835;28;20048;-74
2022/09/14 11:22:11;;;;;;;11.98;5.03;;;24.70;99.90;;;;;;5021493;28;20029;-75
2022/09/14 11:24:47;;;;;;;12.60;4.88;;;24.70;99.90;;;;;;5022615;28;20021;-74
2022/09/14 11:27:38;;;;;;;14.43;5.15;;;24.70;99.90;;;;;;5023424;28;20474;-76
2022/09/14 11:30:17;;;;;;;14.07;5.82;;;24.70;99.90;;;;;;5022964;28;20642;-75
2022/09/14 11:33:06;;;;;;;11.40;5.10;;;24.80;99.90;;;;;;5022888;28;20022;-76
2022/09/14 11:36:04;;;;;;;10.63;5.32;;;24.90;99.90;;;;;;5024032;28;20041;-75
2022/09/14 11:38:35;;;;;;;13.38;6.22;;;24.90;99.90;;;;;;5027928;28;20069;-75
2022/09/14 11:41:16;;;;;;;9.00;5.97;;;24.70;99.90;;;;;;5023323;28;20045;-75
2022/09/14 11:44:08;;;;;;;8.60;5.93;;;24.60;99.90;;;;;;5021986;28;20833;-75
2022/09/14 11:46:38;;;;;;;11.93;6.38;;;24.60;99.90;;;;;;5021425;28;20030;-75
2022/09/14 11:49:20;;;;;;;12.77;5.72;;;24.70;99.90;;;;;;5028080;28;20061;-75
2022/09/14 11:52:18;;;;;;;9.70;4.97;;;24.90;99.90;;;;;;5032608;28;20032;-75
2022/09/14 11:54:44;;;;;;;7.97;4.82;;;25.10;99.90;;;;;;5030841;28;20488;-75
2022/09/14 11:57:17;;;;;;;9.85;5.03;;;25.00;99.90;;;;;;5022772;28;20183;-75
2022/09/14 11:59:43;;;;;;;9.05;5.32;;;25.20;99.90;;;;;;5025838;28;20033;-75
2022/09/14 12:02:26;;;;;;;7.70;4.85;;;25.40;99.90;;;;;;5024866;28;20030;-75
2022/09/14 12:05:08;;;;;;;9.88;5.40;;;25.60;99.90;;;;;;5034135;28;20063;-75
2022/09/14 12:07:42;;;;;;;9.10;4.65;;;25.60;99.70;;;;;;5021968;28;20423;-75
2022/09/14 12:10:16;;;;;;;8.15;4.60;;;25.80;99.90;;;;;;5027287;28;20025;-76
2022/09/14 12:12:43;;;;;;;9.52;5.53;;;25.90;99.80;;;;;;5025909;28;20538;-75
2022/09/14 12:15:24;;;;;;;9.70;4.68;;;25.90;99.10;;;;;;5023253;28;20120;-75
2022/09/14 12:18:10;;;;;;;9.20;4.93;;;25.90;98.70;;;;;;5021452;28;20047;-76
2022/09/14 12:20:35;;;;;;;6.68;4.28;;;25.90;99.20;;;;;;5020381;28;20052;-74
2022/09/14 12:23:38;;;;;;;10.13;4.50;;;26.20;99.60;;;;;;5024287;28;20038;-73
2022/09/14 12:26:17;;;;;;;8.30;4.68;;;26.20;99.50;;;;;;5027372;28;20300;-76
2022/09/14 12:28:49;;;;;;;6.28;3.72;;;26.20;99.80;;;;;;5026102;28;20455;-76
2022/09/14 12:31:35;;;;;;;14.65;4.63;;;26.30;99.70;;;;;;5027805;28;20017;-76
2022/09/14 12:34:19;;;;;;;11.88;4.53;;;26.20;99.60;;;;;;5030672;28;20104;-76
2022/09/14 12:36:45;;;;;;;8.15;4.20;;;26.30;99.90;;;;;;5026163;28;20017;-76
2022/09/14 12:39:33;;;;;;;8.80;4.10;;;26.30;99.90;;;;;;5030866;28;20059;-76
2022/09/14 12:42:28;;;;;;;7.38;4.00;;;26.10;99.40;;;;;;5026196;28;20033;-76
2022/09/14 12:44:54;;;;;;;6.32;4.28;;;26.30;99.20;;;;;;5029980;28;20077;-75
2022/09/14 12:47:29;;;;;;;14.45;4.32;;;26.30;99.40;;;;;;5028174;28;20033;-76
2022/09/14 12:49:57;;;;;;;6.93;4.13;;;26.30;99.20;;;;;;5032586;28;20032;-76
2022/09/14 12:52:41;;;;;;;7.47;3.97;;;26.50;99.90;;;;;;5028663;28;20039;-76
2022/09/14 12:55:31;;;;;;;8.45;3.83;;;26.30;99.50;;;;;;5024310;28;20376;-76
2022/09/14 12:58:37;;;;;;;9.10;4.35;;;26.20;98.90;;;;;;5026222;28;20036;-76
2022/09/14 13:01:15;;;;;;;9.88;4.20;;;26.00;98.50;;;;;;5024323;28;20041;-75
2022/09/14 13:03:53;;;;;;;11.88;4.20;;;25.90;98.60;;;;;;5023079;28;20108;-76
2022/09/14 13:06:21;;;;;;;10.68;3.47;;;25.80;98.60;;;;;;5023121;28;20048;-76
2022/09/14 13:08:55;;;;;;;9.07;3.95;;;26.00;99.90;;;;;;5024516;28;20056;-76
2022/09/14 13:11:52;;;;;;;9.35;3.08;;;26.10;99.70;;;;;;5027698;28;20025;-76
2022/09/14 13:14:19;;;;;;;9.10;3.92;;;26.00;99.90;;;;;;5022698;28;20387;-76
2022/09/14 13:16:48;;;;;;;9.35;3.45;;;26.00;99.90;;;;;;5026443;28;20075;-76